METAR Data
IDs: Format: Raw Decoded Include TAF

Data at: 1815 UTC 16 Oct 2021

SCVM 161800Z 32010KT 270V360 CAVOK 20/06 Q1021